createdAt,value
2022-12-19T00:01:57.475Z,24.67
2022-12-19T00:04:24.271Z,24.98
2022-12-19T00:06:51.076Z,25.45
2022-12-19T00:09:17.844Z,24.90
2022-12-19T00:11:44.555Z,24.38
2022-12-19T00:14:12.016Z,23.95
2022-12-19T00:16:38.987Z,23.70
2022-12-19T00:19:06.321Z,24.33
2022-12-19T00:21:35.026Z,24.88
2022-12-19T00:24:03.033Z,24.17
2022-12-19T00:26:31.948Z,24.73
2022-12-19T00:29:06.770Z,24.08
2022-12-19T00:31:39.737Z,25.27
2022-12-19T00:34:08.677Z,24.42
2022-12-19T00:36:35.544Z,24.83
2022-12-19T00:39:05.684Z,24.38
2022-12-19T00:41:40.073Z,23.98
2022-12-19T00:44:17.013Z,23.98
2022-12-19T00:46:49.251Z,24.33
2022-12-19T00:49:19.729Z,23.45
2022-12-19T00:51:46.384Z,24.88
2022-12-19T00:54:13.050Z,24.40
2022-12-19T00:56:42.254Z,25.98
2022-12-19T00:59:10.563Z,24.85
2022-12-19T01:01:40.633Z,23.65
2022-12-19T01:04:31.236Z,24.48
2022-12-19T01:07:01.749Z,26.17
2022-12-19T01:09:30.358Z,24.70
2022-12-19T01:12:15.823Z,25.83
2022-12-19T01:14:42.597Z,26.13
2022-12-19T01:17:11.813Z,26.02
2022-12-19T01:19:43.665Z,26.15
2022-12-19T01:22:12.745Z,26.45
2022-12-19T01:24:39.731Z,26.65
2022-12-19T01:27:08.871Z,27.77
2022-12-19T01:29:37.701Z,27.33
2022-12-19T01:32:19.664Z,27.23
2022-12-19T01:34:48.514Z,26.83
2022-12-19T01:37:20.547Z,27.10
2022-12-19T01:39:47.600Z,27.85
2022-12-19T01:42:23.180Z,28.08
2022-12-19T01:45:11.100Z,27.25
2022-12-19T01:47:58.553Z,28.15
2022-12-19T01:50:58.444Z,26.95
2022-12-19T01:53:34.573Z,28.48
2022-12-19T01:56:08.965Z,26.95
2022-12-19T01:58:38.349Z,27.75
2022-12-19T02:01:07.824Z,28.10
2022-12-19T02:03:39.302Z,28.23
2022-12-19T02:06:08.448Z,28.77
2022-12-19T02:08:38.424Z,27.33
2022-12-19T02:11:05.278Z,28.02
2022-12-19T02:13:34.441Z,28.88
2022-12-19T02:16:16.115Z,28.05
2022-12-19T02:19:08.208Z,27.05
2022-12-19T02:21:57.207Z,28.55
2022-12-19T02:24:56.511Z,28.45
2022-12-19T02:27:52.878Z,27.88
2022-12-19T02:30:43.527Z,28.20
2022-12-19T02:33:34.567Z,25.58
2022-12-19T02:36:15.301Z,26.17
2022-12-19T02:38:58.080Z,23.58
2022-12-19T02:41:43.246Z,23.13
2022-12-19T02:44:19.619Z,23.08
2022-12-19T02:46:48.742Z,23.85
2022-12-19T02:49:21.338Z,22.80
2022-12-19T02:51:58.288Z,23.67
2022-12-19T02:54:25.566Z,21.20
2022-12-19T02:57:19.950Z,22.25
2022-12-19T03:00:05.274Z,22.17
2022-12-19T03:02:41.046Z,21.98
2022-12-19T03:05:54.668Z,23.10
2022-12-19T03:08:21.365Z,21.67
2022-12-19T03:11:00.921Z,21.00
2022-12-19T03:13:33.421Z,20.58
2022-12-19T03:16:02.092Z,19.85
2022-12-19T03:18:31.384Z,20.48
2022-12-19T03:21:10.983Z,19.27
2022-12-19T03:23:38.319Z,19.20
2022-12-19T03:26:14.500Z,20.75
2022-12-19T03:28:53.682Z,20.48
2022-12-19T03:31:24.581Z,19.30
2022-12-19T03:33:57.190Z,19.47
2022-12-19T03:36:33.282Z,18.45
2022-12-19T03:39:04.422Z,16.95
2022-12-19T03:41:50.342Z,17.45
2022-12-19T03:44:18.516Z,16.83
2022-12-19T03:46:54.034Z,15.40
2022-12-19T03:49:20.953Z,13.82
2022-12-19T03:52:04.793Z,14.30
2022-12-19T03:54:37.364Z,15.02
2022-12-19T03:57:23.061Z,15.32
2022-12-19T04:00:01.998Z,14.52
2022-12-19T04:02:29.816Z,14.43
2022-12-19T04:05:02.088Z,14.48
2022-12-19T04:07:29.065Z,15.32
2022-12-19T04:09:59.167Z,14.55
2022-12-19T04:12:32.116Z,14.98
2022-12-19T04:14:58.893Z,14.07
2022-12-19T04:17:29.954Z,14.40
2022-12-19T04:20:04.624Z,13.93
2022-12-19T04:22:43.889Z,13.52
2022-12-19T04:25:15.060Z,13.55
2022-12-19T04:27:46.960Z,13.10
2022-12-19T04:30:18.503Z,10.98
2022-12-19T04:32:46.613Z,12.45
2022-12-19T04:35:14.080Z,11.57
2022-12-19T04:37:43.615Z,11.90
2022-12-19T04:40:11.276Z,11.60
2022-12-19T04:42:38.001Z,12.45
2022-12-19T04:45:08.373Z,12.40
2022-12-19T04:47:37.676Z,12.73
2022-12-19T04:50:05.481Z,13.32
2022-12-19T04:52:34.343Z,12.75
2022-12-19T04:55:01.055Z,13.70
2022-12-19T04:57:31.580Z,14.18
2022-12-19T04:59:58.469Z,13.75
2022-12-19T05:02:25.783Z,13.93
2022-12-19T05:04:52.748Z,14.15
2022-12-19T05:07:21.897Z,14.57
2022-12-19T05:09:48.857Z,14.98
2022-12-19T05:12:17.756Z,14.98
2022-12-19T05:14:44.719Z,15.55
2022-12-19T05:17:11.588Z,16.25
2022-12-19T05:19:40.435Z,15.95
2022-12-19T05:22:07.137Z,15.68
2022-12-19T05:24:33.794Z,15.23
2022-12-19T05:27:00.505Z,15.38
2022-12-19T05:29:27.176Z,14.63
2022-12-19T05:31:53.839Z,16.83
2022-12-19T05:34:20.820Z,15.23
2022-12-19T05:36:47.697Z,15.90
2022-12-19T05:39:14.414Z,15.02
2022-12-19T05:41:41.387Z,14.55
2022-12-19T05:44:10.640Z,15.00
2022-12-19T05:46:37.552Z,14.48
2022-12-19T05:49:04.368Z,15.05
2022-12-19T05:51:31.684Z,15.40
2022-12-19T05:54:00.598Z,15.18
2022-12-19T05:56:29.942Z,15.55
2022-12-19T05:58:57.279Z,15.02
2022-12-19T06:01:26.838Z,16.90
2022-12-19T06:03:55.256Z,16.17
2022-12-19T06:06:24.664Z,14.02
2022-12-19T06:08:56.645Z,12.65
2022-12-19T06:11:23.779Z,14.55
2022-12-19T06:13:51.178Z,12.38
2022-12-19T06:16:21.352Z,14.18
2022-12-19T06:18:48.077Z,14.02
2022-12-19T06:21:22.877Z,14.18
2022-12-19T06:23:49.586Z,13.93
2022-12-19T06:26:19.956Z,14.43
2022-12-19T06:28:52.317Z,15.60
2022-12-19T06:31:21.355Z,14.75
2022-12-19T06:33:48.363Z,14.75
2022-12-19T06:36:26.328Z,13.93
2022-12-19T06:38:54.316Z,12.88
2022-12-19T06:41:39.968Z,13.60
2022-12-19T06:44:09.606Z,12.80
2022-12-19T06:46:37.881Z,11.98
2022-12-19T06:49:08.140Z,12.55
2022-12-19T06:51:35.232Z,12.50
2022-12-19T06:54:01.922Z,12.02
2022-12-19T06:56:33.889Z,11.25
2022-12-19T06:59:00.811Z,11.38
2022-12-19T07:01:47.129Z,11.43
2022-12-19T07:04:18.651Z,11.93
2022-12-19T07:06:49.017Z,11.63
2022-12-19T07:09:16.122Z,12.00
2022-12-19T07:11:42.823Z,11.85
2022-12-19T07:14:10.652Z,10.55
2022-12-19T07:16:37.966Z,11.07
2022-12-19T07:19:05.891Z,10.93
2022-12-19T07:21:35.962Z,10.63
2022-12-19T07:24:06.460Z,10.15
2022-12-19T07:26:35.371Z,10.43
2022-12-19T07:29:02.985Z,10.75
2022-12-19T07:31:29.730Z,10.88
2022-12-19T07:33:56.554Z,10.07
2022-12-19T07:36:23.402Z,10.02
2022-12-19T07:38:50.636Z,10.07
2022-12-19T07:41:17.654Z,8.75
2022-12-19T07:43:45.585Z,9.82
2022-12-19T07:46:14.659Z,10.85
2022-12-19T07:48:41.541Z,9.88
2022-12-19T07:51:08.221Z,10.50
2022-12-19T07:53:35.044Z,10.00
2022-12-19T07:56:01.815Z,10.25
2022-12-19T07:58:28.512Z,9.80
2022-12-19T08:01:00.855Z,9.20
2022-12-19T08:03:28.520Z,9.75
2022-12-19T08:06:00.328Z,10.07
2022-12-19T08:11:06.279Z,10.02
2022-12-19T08:13:39.659Z,10.07
2022-12-19T08:16:10.643Z,9.75
2022-12-19T08:18:37.516Z,9.85
2022-12-19T08:21:04.316Z,9.27
2022-12-19T08:23:30.989Z,9.60
2022-12-19T08:26:05.226Z,10.13
2022-12-19T08:28:35.782Z,9.23
2022-12-19T08:31:12.102Z,10.07
2022-12-19T08:33:39.291Z,9.50
2022-12-19T08:36:08.071Z,9.40
2022-12-19T08:38:35.751Z,9.70
2022-12-19T08:41:04.666Z,9.13
2022-12-19T08:43:32.031Z,9.60
2022-12-19T08:45:59.623Z,9.60
2022-12-19T08:48:27.058Z,8.52
2022-12-19T08:50:54.514Z,8.75
2022-12-19T08:53:26.331Z,8.10
2022-12-19T08:55:57.879Z,8.80
2022-12-19T08:58:25.541Z,9.52
2022-12-19T09:01:01.742Z,8.93
2022-12-19T09:03:42.808Z,9.32
2022-12-19T09:06:21.753Z,8.98
2022-12-19T09:08:48.532Z,8.90
2022-12-19T09:11:17.463Z,9.35
2022-12-19T09:13:44.998Z,8.73
2022-12-19T09:16:14.988Z,7.85
2022-12-19T09:18:48.229Z,9.20
2022-12-19T09:21:16.838Z,8.15
2022-12-19T09:23:49.071Z,8.18
2022-12-19T09:26:16.797Z,8.75
2022-12-19T09:28:47.465Z,9.02
2022-12-19T09:31:20.870Z,8.93
2022-12-19T09:33:47.944Z,8.55
2022-12-19T09:36:24.573Z,8.63
2022-12-19T09:38:54.558Z,8.50
2022-12-19T09:41:32.951Z,8.40
2022-12-19T09:44:27.987Z,6.55
2022-12-19T09:47:19.807Z,7.65
2022-12-19T09:49:48.215Z,7.70
2022-12-19T09:52:48.363Z,8.00
2022-12-19T09:55:23.944Z,7.68
2022-12-19T09:57:59.310Z,7.90
2022-12-19T10:00:41.519Z,7.15
2022-12-19T10:03:39.969Z,7.15
2022-12-19T10:07:10.474Z,7.65
2022-12-19T10:10:25.393Z,7.18
2022-12-19T10:12:43.722Z,7.10
2022-12-19T10:15:16.903Z,7.15
2022-12-19T10:18:06.172Z,6.95
2022-12-19T10:20:38.525Z,7.60
2022-12-19T10:23:32.951Z,7.05
2022-12-19T10:26:00.472Z,6.80
2022-12-19T10:28:29.626Z,6.78
2022-12-19T10:31:20.708Z,6.45
2022-12-19T10:34:16.634Z,7.35
2022-12-19T10:40:01.130Z,7.10
2022-12-19T10:42:52.573Z,6.38
2022-12-19T10:45:21.476Z,6.18
2022-12-19T10:47:51.678Z,6.63
2022-12-19T10:50:25.273Z,6.65
2022-12-19T10:53:07.478Z,6.40
2022-12-19T10:55:39.164Z,6.93
2022-12-19T10:58:20.373Z,6.40
2022-12-19T11:01:22.069Z,6.43
2022-12-19T11:03:53.441Z,6.57
2022-12-19T11:06:37.997Z,6.47
2022-12-19T11:09:27.646Z,6.28
2022-12-19T11:15:49.474Z,6.20
2022-12-19T11:20:41.816Z,6.40
2022-12-19T11:29:15.665Z,6.18
2022-12-19T11:29:25.173Z,6.07
2022-12-19T11:29:32.145Z,6.43
2022-12-19T11:30:48.179Z,5.38
2022-12-19T11:33:18.607Z,5.93
2022-12-19T11:35:58.548Z,6.80
2022-12-19T11:38:57.746Z,6.43
2022-12-19T11:41:41.438Z,6.68
2022-12-19T11:44:36.331Z,6.60
2022-12-19T11:47:33.085Z,6.63
2022-12-19T11:50:04.130Z,6.55
2022-12-19T11:55:51.125Z,7.63
2022-12-19T11:58:17.974Z,6.78
2022-12-19T12:00:58.430Z,7.03
2022-12-19T12:04:01.820Z,6.97
2022-12-19T12:06:36.347Z,6.70
2022-12-19T12:13:50.297Z,7.32
2022-12-19T12:20:50.669Z,6.88
2022-12-19T12:26:56.795Z,8.02
2022-12-19T12:31:15.728Z,7.20
2022-12-19T12:31:32.656Z,7.32
2022-12-19T12:31:49.432Z,7.05
2022-12-19T12:31:53.063Z,6.95
2022-12-19T12:35:33.276Z,6.78
2022-12-19T12:37:47.869Z,6.68
2022-12-19T12:38:46.969Z,6.72
2022-12-19T12:41:57.919Z,6.07
2022-12-19T12:44:33.371Z,5.85
2022-12-19T12:47:25.677Z,6.03
2022-12-19T12:52:32.734Z,6.40
2022-12-19T12:54:59.794Z,5.78
2022-12-19T12:57:30.110Z,6.10
2022-12-19T13:00:20.844Z,5.90
2022-12-19T13:03:02.095Z,5.82
2022-12-19T13:05:40.984Z,6.00
2022-12-19T13:08:32.643Z,6.20
2022-12-19T13:11:38.919Z,6.13
2022-12-19T13:14:26.211Z,5.68
2022-12-19T13:16:54.441Z,5.78
2022-12-19T13:19:28.486Z,6.00
2022-12-19T13:22:04.989Z,5.90
2022-12-19T13:24:41.454Z,5.35
2022-12-19T13:27:20.326Z,5.40
2022-12-19T13:30:12.369Z,5.55
2022-12-19T13:36:58.813Z,5.55
2022-12-19T13:40:02.078Z,5.50
2022-12-19T13:41:47.638Z,5.55
2022-12-19T13:44:18.076Z,5.50
2022-12-19T13:49:34.659Z,4.72
2022-12-19T13:52:04.344Z,5.45
2022-12-19T13:54:50.063Z,5.10
2022-12-19T13:57:28.701Z,5.10
2022-12-19T14:00:01.101Z,4.80
2022-12-19T14:02:43.873Z,5.03
2022-12-19T14:06:09.671Z,5.20
2022-12-19T14:08:21.449Z,4.35
2022-12-19T14:11:37.167Z,4.20
2022-12-19T14:14:10.253Z,4.32
2022-12-19T14:16:45.620Z,4.60
2022-12-19T14:19:24.487Z,4.70
2022-12-19T14:22:04.608Z,4.88
2022-12-19T14:24:38.821Z,4.38
2022-12-19T14:28:18.148Z,4.68
2022-12-19T14:30:28.625Z,4.22
2022-12-19T14:33:47.501Z,8.32
2022-12-19T14:36:11.378Z,20.35
2022-12-19T14:39:25.991Z,6.55
2022-12-19T14:41:47.267Z,5.18
2022-12-19T14:52:34.604Z,4.25
2022-12-19T14:53:51.146Z,4.70
2022-12-19T14:54:21.706Z,5.03
2022-12-19T14:54:49.391Z,4.65
2022-12-19T14:56:50.550Z,4.13
2022-12-19T14:59:22.196Z,5.05
2022-12-19T15:01:54.006Z,5.60
2022-12-19T15:04:52.155Z,4.80
2022-12-19T15:07:29.311Z,5.43
2022-12-19T15:11:07.184Z,4.97
2022-12-19T15:14:51.744Z,4.75
2022-12-19T15:16:05.263Z,6.70
2022-12-19T15:18:42.567Z,20.80
2022-12-19T15:21:14.596Z,8.63
2022-12-19T15:23:44.300Z,6.07
2022-12-19T15:26:35.372Z,6.57
2022-12-19T15:29:07.117Z,5.37
2022-12-19T15:34:34.875Z,4.95
2022-12-19T15:37:02.914Z,4.95
2022-12-19T15:39:30.252Z,5.15
2022-12-19T15:42:01.009Z,5.20
2022-12-19T15:44:43.501Z,4.57
2022-12-19T15:47:32.097Z,5.32
2022-12-19T15:50:02.873Z,5.30
2022-12-19T15:52:30.054Z,4.57
2022-12-19T15:54:57.375Z,4.70
2022-12-19T15:57:30.355Z,4.80
2022-12-19T15:59:58.816Z,5.15
2022-12-19T16:02:42.677Z,5.50
2022-12-19T16:05:14.528Z,4.97
2022-12-19T16:07:41.300Z,4.80
2022-12-19T16:10:11.041Z,4.95
2022-12-19T16:12:41.361Z,5.07
2022-12-19T16:15:32.939Z,4.40
2022-12-19T16:18:01.520Z,5.38
2022-12-19T16:20:37.620Z,4.78
2022-12-19T16:23:04.368Z,4.82
2022-12-19T16:25:46.613Z,4.80
2022-12-19T16:28:34.952Z,5.25
2022-12-19T16:31:16.289Z,4.18
2022-12-19T16:33:43.040Z,4.40
2022-12-19T16:36:09.909Z,4.13
2022-12-19T16:38:36.944Z,4.60
2022-12-19T16:41:03.849Z,4.97
2022-12-19T16:43:35.913Z,4.63
2022-12-19T16:46:05.752Z,4.90
2022-12-19T16:48:35.464Z,4.60
2022-12-19T16:51:02.302Z,4.78
2022-12-19T16:53:29.423Z,5.05
2022-12-19T16:55:56.940Z,4.72
2022-12-19T16:58:26.735Z,4.93
2022-12-19T17:00:55.631Z,4.78
2022-12-19T17:03:43.567Z,4.20
2022-12-19T17:06:13.807Z,4.88
2022-12-19T17:08:40.787Z,5.18
2022-12-19T17:11:18.540Z,5.38
2022-12-19T17:13:47.651Z,8.40
2022-12-19T17:16:14.724Z,12.95
2022-12-19T17:18:42.836Z,5.07
2022-12-19T17:21:18.636Z,5.60
2022-12-19T17:23:46.319Z,4.35
2022-12-19T17:26:17.724Z,5.43
2022-12-19T17:28:47.955Z,5.30
2022-12-19T17:31:27.959Z,5.32
2022-12-19T17:33:56.425Z,5.13
2022-12-19T17:36:32.678Z,5.35
2022-12-19T17:39:01.827Z,4.72
2022-12-19T17:41:28.808Z,5.47
2022-12-19T17:43:55.526Z,5.70
2022-12-19T17:46:23.580Z,4.82
2022-12-19T17:48:52.597Z,5.03
2022-12-19T17:51:21.491Z,4.90
2022-12-19T17:53:49.444Z,4.80
2022-12-19T17:56:19.901Z,5.05
2022-12-19T17:58:48.338Z,4.70
2022-12-19T18:01:23.624Z,5.40
2022-12-19T18:03:52.301Z,5.28
2022-12-19T18:06:20.344Z,5.20
2022-12-19T18:08:47.315Z,5.65
2022-12-19T18:11:23.232Z,4.80
2022-12-19T18:13:50.955Z,5.00
2022-12-19T18:16:20.814Z,5.28
2022-12-19T18:18:47.785Z,5.40
2022-12-19T18:21:16.854Z,5.88
2022-12-19T18:23:44.231Z,5.78
2022-12-19T18:26:12.017Z,4.85
2022-12-19T18:28:39.877Z,4.65
2022-12-19T18:31:14.291Z,5.25
2022-12-19T18:33:43.304Z,4.70
2022-12-19T18:36:20.507Z,4.97
2022-12-19T18:38:48.734Z,4.95
2022-12-19T18:41:17.433Z,4.55
2022-12-19T18:43:44.179Z,5.22
2022-12-19T18:46:16.711Z,4.90
2022-12-19T18:48:45.299Z,4.82
2022-12-19T18:51:19.927Z,4.80
2022-12-19T18:53:47.958Z,4.97
2022-12-19T18:56:16.023Z,4.93
2022-12-19T18:58:42.908Z,4.63
2022-12-19T19:01:18.469Z,4.72
2022-12-19T19:03:56.030Z,4.97
2022-12-19T19:06:28.511Z,5.00
2022-12-19T19:08:56.998Z,5.28
2022-12-19T19:11:27.069Z,4.95
2022-12-19T19:13:53.793Z,5.22
2022-12-19T19:16:25.953Z,5.03
2022-12-19T19:18:55.181Z,5.18
2022-12-19T19:21:27.328Z,5.20
2022-12-19T19:24:00.284Z,5.45
2022-12-19T19:26:27.009Z,5.22
2022-12-19T19:28:53.757Z,5.00
2022-12-19T19:31:23.375Z,4.95
2022-12-19T19:33:55.983Z,4.72
2022-12-19T19:36:27.507Z,5.68
2022-12-19T19:38:59.620Z,4.97
2022-12-19T19:41:29.841Z,5.20
2022-12-19T19:43:58.704Z,5.53
2022-12-19T19:46:26.396Z,5.15
2022-12-19T19:48:53.311Z,6.55
2022-12-19T19:51:20.040Z,6.13
2022-12-19T19:53:46.899Z,6.57
2022-12-19T19:56:16.018Z,6.63
2022-12-19T19:58:42.743Z,5.53
2022-12-19T20:01:10.907Z,8.25
2022-12-19T20:03:44.689Z,5.57
2022-12-19T20:06:14.539Z,6.18
2022-12-19T20:08:43.589Z,5.57
2022-12-19T20:11:13.691Z,6.10
2022-12-19T20:13:45.824Z,6.35
2022-12-19T20:16:16.747Z,5.70
2022-12-19T20:18:50.557Z,5.72
2022-12-19T20:21:18.619Z,5.18
2022-12-19T20:23:45.776Z,5.53
2022-12-19T20:26:15.509Z,5.80
2022-12-19T20:28:48.472Z,6.35
2022-12-19T20:31:17.207Z,5.65
2022-12-19T20:33:43.949Z,6.50
2022-12-19T20:36:12.138Z,6.57
2022-12-19T20:38:39.432Z,6.38
2022-12-19T20:41:06.621Z,5.55
2022-12-19T20:43:35.589Z,5.20
2022-12-19T20:46:09.654Z,5.43
2022-12-19T20:48:36.851Z,5.65
2022-12-19T20:51:04.704Z,5.57
2022-12-19T20:53:32.963Z,6.15
2022-12-19T20:56:01.166Z,6.10
2022-12-19T20:58:29.125Z,6.00
2022-12-19T21:00:56.917Z,5.70
2022-12-19T21:03:28.990Z,5.90
2022-12-19T21:05:56.824Z,5.97
2022-12-19T21:08:24.604Z,6.18
2022-12-19T21:10:51.894Z,5.32
2022-12-19T21:13:18.895Z,5.60
2022-12-19T21:15:45.738Z,5.40
2022-12-19T21:18:12.556Z,5.25
2022-12-19T21:20:39.304Z,5.25
2022-12-19T21:23:06.072Z,5.18
2022-12-19T21:25:32.785Z,5.47
2022-12-19T21:27:59.441Z,5.68
2022-12-19T21:30:26.126Z,5.80
2022-12-19T21:32:52.831Z,5.18
2022-12-19T21:35:19.599Z,5.63
2022-12-19T21:37:50.104Z,5.35
2022-12-19T21:40:20.755Z,5.75
2022-12-19T21:42:47.735Z,5.05
2022-12-19T21:45:15.203Z,5.05
2022-12-19T21:47:42.960Z,5.47
2022-12-19T21:50:12.364Z,27.45
2022-12-19T21:52:39.695Z,6.30
2022-12-19T21:55:08.465Z,5.35
2022-12-19T21:57:39.820Z,5.70
2022-12-19T22:00:09.219Z,5.10
2022-12-19T22:02:36.212Z,4.88
2022-12-19T22:05:03.275Z,4.63
2022-12-19T22:07:30.244Z,4.50
2022-12-19T22:09:56.946Z,5.03
2022-12-19T22:12:23.639Z,4.60
2022-12-19T22:14:52.474Z,5.13
2022-12-19T22:17:19.269Z,4.65
2022-12-19T22:19:45.921Z,5.07
2022-12-19T22:22:12.595Z,4.88
2022-12-19T22:24:39.374Z,4.63
2022-12-19T22:27:06.174Z,4.57
2022-12-19T22:29:36.417Z,4.72
2022-12-19T22:32:04.367Z,4.88
2022-12-19T22:34:31.617Z,4.57
2022-12-19T22:36:58.530Z,4.82
2022-12-19T22:39:25.585Z,4.50
2022-12-19T22:41:52.417Z,4.82
2022-12-19T22:44:22.278Z,4.47
2022-12-19T22:46:49.651Z,5.35
2022-12-19T22:49:19.118Z,4.70
2022-12-19T22:51:45.955Z,4.13
2022-12-19T22:54:13.912Z,4.55
2022-12-19T22:56:42.022Z,4.47
2022-12-19T22:59:10.916Z,4.32
2022-12-19T23:01:40.817Z,4.43
2022-12-19T23:04:09.349Z,4.85
2022-12-19T23:06:37.676Z,4.80
2022-12-19T23:09:06.968Z,4.50
2022-12-19T23:11:39.184Z,4.22
2022-12-19T23:14:07.732Z,5.00
2022-12-19T23:16:34.981Z,4.28
2022-12-19T23:19:01.750Z,4.35
2022-12-19T23:21:28.598Z,4.22
2022-12-19T23:23:56.215Z,4.60
2022-12-19T23:26:28.902Z,4.38
2022-12-19T23:28:57.991Z,4.00
2022-12-19T23:31:25.499Z,4.50
2022-12-19T23:33:52.268Z,4.55
2022-12-19T23:36:38.198Z,4.05
2022-12-19T23:39:06.646Z,4.32
2022-12-19T23:41:33.501Z,4.20
2022-12-19T23:44:00.253Z,4.32
2022-12-19T23:46:27.827Z,4.10
2022-12-19T23:48:55.143Z,4.30
2022-12-19T23:51:25.106Z,4.05
2022-12-19T23:53:53.233Z,4.45
2022-12-19T23:56:25.927Z,4.15
2022-12-19T23:58:52.691Z,3.55
